Canovanas, PR (00729)

8:14 PM AST on January 17, 2017 (GMT -0400)
Manejo de Emergencias Canovanas | | Change Station
Active Advisory: Coastal Hazard Statement

Elev 56 ft 18.38 °N, 65.90 °W | Updated 11 minutes ago

Partly Cloudy
Partly Cloudy
74.6 °F
Feels Like 71 °F
N
4.0
Wind Variable Wind from ENE
Gusts 12.0 mph

Today
High -- | Low -- °F
--% Chance of Precip.
Yesterday
High -- | Low -- °F
Precip. -- in
Pressure 30.09 in
Visibility 10.0 miles
Clouds Few 2100 ft
Scattered Clouds 5000 ft
Scattered Clouds 8000 ft
Heat Index 71 °F
Dew Point 75 °F
Humidity 100%
Rainfall Not available.
Snow Depth Not available.
6:58 AM 6:09 PM
Waning Gibbous, 68% visible
METAR TJSJ 172356Z 04010KT 10SM FEW021 SCT050 SCT080 24/21 A3009 RMK AO2 RAB33E44 SLP189 P0000 60000 T02390206 10283 20239 53013
Pressure 30.09 in
Visibility 10.0 miles
Clouds Few 2100 ft
Scattered Clouds 5000 ft
Scattered Clouds 8000 ft
Heat Index 71 °F
Dew Point 75 °F
Humidity 100%
Rainfall Not available.
Snow Depth Not available.
6:58 AM 6:09 PM
Waning Gibbous, 68% visible
METAR TJSJ 172356Z 04010KT 10SM FEW021 SCT050 SCT080 24/21 A3009 RMK AO2 RAB33E44 SLP189 P0000 60000 T02390206 10283 20239 53013

Get Your Daily Forecast Email!

Thanks for signing up!

Be on the lookout for a verification email in your inbox.

You'll start receiving the daily forecast at 8 AM.

×

10-Day Weather Forecast

Almanac

Astronomy

Jan. 17, 2017 Rise Set
Actual Time
Civil Twilight
Nautical Twilight
Astronomical Twilight
Moon
Length of Visible Light
Length of Day
Tomorrow will be .
, % of the Moon is Illuminated

Today's Extremes

State Highs State Lows

Community

WunderPhotos

Upload Photos

1,962,540 photos uploaded!

WunderBlog® & News

Nearby

Air Quality

  Air Quality AQ Index Pollutant
Not available.

Snow Depth

Station Depth Elevation

Earthquake Activity

City Distance Mag. Time & Date
Minimum magnitude displayed is 2.5.

Coastal Water Temperatures

Place Temperature

Stations

Nearby Weather Stations

Station Location Temp. Windchill Dew Point Humidity Wind Precip. Elev Updated Type
                   

Watches & Warnings

Coastal Hazard Statement
Issued: 12:46 PM AST Jan. 17, 2017 – National Weather Service

... High rip current risk remains in effect through late tonight...

* breaking waves... between 5 to 7 feet and decreasing.

* Location... northwest through northeast facing beaches of
Puerto Rico and Saint Croix.

* Timing... through late tonight.

* Impacts... strong currents that can carry even the strongest
swimmers out to sea.

There is a high risk of rip currents.

Rip currents are powerful channels of water flowing quickly away
from shore... which occur most often at low spots or breaks in The
Sandbar and in the vicinity of structures such as groins...
jetties and piers. Heed the advice of lifeguards... beach patrol
flags and signs.